Time,TemperatureF,DewpointF,PressureIn,WindDirection,WindDirectionDegrees,WindSpeedMPH,WindSpeedGustMPH,Humidity,HourlyPrecipIn,Conditions,Clouds,dailyrainin,SoftwareType,DateUTC
2013-08-26 00:13:00,51.8,40.8,29.74,NNW,337,0.0,-999.0,66,-99.99,,,0.00,Acu-Link.com,2013-08-26 07:13:00,
2013-08-26 00:28:00,51.8,41.2,29.74,ESE,112,0.0,-999.0,67,-99.99,,,0.00,Acu-Link.com,2013-08-26 07:28:00,
2013-08-26 00:43:00,51.8,40.8,29.74,North,0,0.0,-999.0,66,-99.99,,,0.00,Acu-Link.com,2013-08-26 07:43:00,
2013-08-26 00:58:00,51.8,40.4,29.74,WNW,292,0.0,-999.0,65,-99.99,,,0.00,Acu-Link.com,2013-08-26 07:58:00,
2013-08-26 01:13:00,51.8,40.4,29.74,NE,45,0.0,-999.0,65,-99.99,,,0.00,Acu-Link.com,2013-08-26 08:13:00,
2013-08-26 01:28:00,51.8,40.4,29.74,East,90,0.0,-999.0,65,-99.99,,,0.00,Acu-Link.com,2013-08-26 08:28:00,
2013-08-26 01:44:00,53.6,41.7,29.74,ENE,67,0.0,-999.0,64,-99.99,,,0.00,Acu-Link.com,2013-08-26 08:44:00,
2013-08-26 01:59:00,53.6,42.1,29.75,SW,225,0.0,-999.0,65,-99.99,,,0.00,Acu-Link.com,2013-08-26 08:59:00,
2013-08-26 02:14:00,51.8,40.4,29.75,ESE,112,0.0,-999.0,65,-99.99,,,0.00,Acu-Link.com,2013-08-26 09:14:00,
2013-08-26 02:29:00,51.8,40.0,29.75,NE,45,0.0,-999.0,64,-99.99,,,0.00,Acu-Link.com,2013-08-26 09:29:00,
2013-08-26 02:44:00,51.8,41.2,29.76,WSW,247,0.0,-999.0,67,-99.99,,,0.00,Acu-Link.com,2013-08-26 09:44:00,
2013-08-26 03:00:00,51.8,41.6,29.76,NNW,337,0.0,-999.0,68,-99.99,,,0.00,Acu-Link.com,2013-08-26 10:00:00,
2013-08-26 03:15:00,51.8,43.1,29.74,East,90,0.0,-999.0,72,-99.99,,,0.00,Acu-Link.com,2013-08-26 10:15:00,
2013-08-26 03:30:00,51.8,43.1,29.76,NE,45,0.0,-999.0,72,-99.99,,,0.00,Acu-Link.com,2013-08-26 10:30:00,
2013-08-26 03:45:00,51.8,43.1,29.75,SW,225,0.0,-999.0,72,-99.99,,,0.00,Acu-Link.com,2013-08-26 10:45:00,
2013-08-26 04:00:00,51.8,43.1,29.75,SSW,202,0.0,-999.0,72,-99.99,,,0.00,Acu-Link.com,2013-08-26 11:00:00,
2013-08-26 04:15:00,51.8,43.1,29.75,NW,315,0.0,-999.0,72,-99.99,,,0.00,Acu-Link.com,2013-08-26 11:15:00,
2013-08-26 04:30:00,51.8,44.8,29.74,ENE,67,0.0,-999.0,77,-99.99,,,0.00,Acu-Link.com,2013-08-26 11:30:00,
2013-08-26 04:45:00,50.0,43.7,29.74,East,90,0.0,-999.0,79,-99.99,,,0.00,Acu-Link.com,2013-08-26 11:45:00,
2013-08-26 05:01:00,50.0,44.1,29.75,ENE,67,0.0,-999.0,80,-99.99,,,0.00,Acu-Link.com,2013-08-26 12:01:00,
2013-08-26 05:16:00,50.0,44.1,29.74,ESE,112,0.0,-999.0,80,-99.99,,,0.00,Acu-Link.com,2013-08-26 12:16:00,
2013-08-26 05:31:00,50.0,43.1,29.74,ENE,67,0.0,-999.0,77,-99.99,,,0.00,Acu-Link.com,2013-08-26 12:31:00,
2013-08-26 05:46:00,50.0,43.4,29.75,SSW,202,0.0,-999.0,78,-99.99,,,0.00,Acu-Link.com,2013-08-26 12:46:00,
2013-08-26 06:01:00,50.0,44.1,29.75,ESE,112,0.0,-999.0,80,-99.99,,,0.00,Acu-Link.com,2013-08-26 13:01:00,
2013-08-26 06:16:00,50.0,44.1,29.76,NW,315,0.0,-999.0,80,-99.99,,,0.00,Acu-Link.com,2013-08-26 13:16:00,
2013-08-26 06:31:00,50.0,43.7,29.77,SSW,202,0.0,-999.0,79,-99.99,,,0.00,Acu-Link.com,2013-08-26 13:31:00,
2013-08-26 06:47:00,50.0,43.7,29.76,NE,45,0.0,-999.0,79,-99.99,,,0.00,Acu-Link.com,2013-08-26 13:47:00,
2013-08-26 07:02:00,51.8,45.2,29.77,NNE,22,0.0,-999.0,78,-99.99,,,0.00,Acu-Link.com,2013-08-26 14:02:00,
2013-08-26 07:17:00,51.8,45.8,29.77,NNW,337,0.0,-999.0,80,-99.99,,,0.00,Acu-Link.com,2013-08-26 14:17:00,
2013-08-26 07:32:00,51.8,45.8,29.77,East,90,0.0,-999.0,80,-99.99,,,0.00,Acu-Link.com,2013-08-26 14:32:00,
2013-08-26 07:47:00,51.8,46.2,29.76,South,180,0.0,-999.0,81,-99.99,,,0.00,Acu-Link.com,2013-08-26 14:47:00,
2013-08-26 08:02:00,53.6,47.6,29.77,ENE,67,0.0,-999.0,80,-99.99,,,0.00,Acu-Link.com,2013-08-26 15:02:00,
2013-08-26 08:18:00,53.6,45.9,29.77,East,90,0.0,-999.0,75,-99.99,,,0.00,Acu-Link.com,2013-08-26 15:18:00,
2013-08-26 08:33:00,53.6,45.2,29.77,ESE,112,0.0,-999.0,73,-99.99,,,0.00,Acu-Link.com,2013-08-26 15:33:00,
2013-08-26 08:48:00,53.6,45.2,29.77,ESE,112,0.0,-999.0,73,-99.99,,,0.00,Acu-Link.com,2013-08-26 15:48:00,
2013-08-26 09:03:00,53.6,45.2,29.77,ESE,112,0.0,-999.0,73,-99.99,,,0.00,Acu-Link.com,2013-08-26 16:03:00,
2013-08-26 09:18:00,55.4,47.3,29.77,West,270,0.0,-999.0,74,-99.99,,,0.00,Acu-Link.com,2013-08-26 16:18:00,
2013-08-26 09:33:00,57.2,46.7,29.77,ESE,112,0.0,-999.0,68,-99.99,,,0.00,Acu-Link.com,2013-08-26 16:33:00,
2013-08-26 09:48:00,59.0,47.7,29.77,East,90,0.0,-999.0,66,-99.99,,,0.00,Acu-Link.com,2013-08-26 16:48:00,
2013-08-26 10:03:00,59.0,48.1,29.77,ENE,67,0.0,-999.0,67,-99.99,,,0.00,Acu-Link.com,2013-08-26 17:03:00,
2013-08-26 10:18:00,59.0,48.5,29.77,ESE,112,0.0,-999.0,68,-99.99,,,0.00,Acu-Link.com,2013-08-26 17:18:00,
2013-08-26 10:33:00,59.0,48.1,29.77,SE,135,0.0,-999.0,67,-99.99,,,0.00,Acu-Link.com,2013-08-26 17:33:00,
2013-08-26 10:48:00,60.8,49.0,29.77,East,90,2.0,-999.0,65,-99.99,,,0.00,Acu-Link.com,2013-08-26 17:48:00,
2013-08-26 11:03:00,60.8,47.7,29.77,East,90,1.1,-999.0,62,-99.99,,,0.00,Acu-Link.com,2013-08-26 18:03:00,
2013-08-26 11:18:00,62.6,49.8,29.76,SSW,202,2.7,-999.0,63,-99.99,,,0.00,Acu-Link.com,2013-08-26 18:18:00,
2013-08-26 11:33:00,62.6,48.1,29.76,East,90,2.7,-999.0,59,-99.99,,,0.00,Acu-Link.com,2013-08-26 18:33:00,
2013-08-26 11:49:00,62.6,47.6,29.76,ESE,112,3.1,-999.0,58,-99.99,,,0.00,Acu-Link.com,2013-08-26 18:49:00,
2013-08-26 12:04:00,64.4,48.4,29.76,SSW,202,3.1,-999.0,56,-99.99,,,0.00,Acu-Link.com,2013-08-26 19:04:00,
2013-08-26 12:19:00,71.6,50.9,29.76,SW,225,4.0,-999.0,48,-99.99,,,0.00,Acu-Link.com,2013-08-26 19:19:00,
2013-08-26 12:34:00,68.0,49.7,29.75,SSE,157,2.0,-999.0,52,-99.99,,,0.00,Acu-Link.com,2013-08-26 19:34:00,
2013-08-26 12:49:00,68.0,49.2,29.74,ESE,112,3.1,-999.0,51,-99.99,,,0.00,Acu-Link.com,2013-08-26 19:49:00,
2013-08-26 13:04:00,68.0,49.7,29.74,East,90,2.0,-999.0,52,-99.99,,,0.00,Acu-Link.com,2013-08-26 20:04:00,
2013-08-26 13:19:00,69.8,49.8,29.73,ESE,112,2.0,-999.0,49,-99.99,,,0.00,Acu-Link.com,2013-08-26 20:19:00,
2013-08-26 13:34:00,68.0,49.7,29.73,East,90,2.7,-999.0,52,-99.99,,,0.00,Acu-Link.com,2013-08-26 20:34:00,
2013-08-26 13:49:00,68.0,50.2,29.72,ESE,112,3.1,-999.0,53,-99.99,,,0.00,Acu-Link.com,2013-08-26 20:49:00,
2013-08-26 14:05:00,69.8,49.2,29.72,ESE,112,2.7,-999.0,48,-99.99,,,0.00,Acu-Link.com,2013-08-26 21:05:00,
2013-08-26 14:20:00,71.6,48.5,29.71,SSE,157,5.1,-999.0,44,-99.99,,,0.00,Acu-Link.com,2013-08-26 21:20:00,
2013-08-26 14:35:00,71.6,47.3,29.71,SSW,202,1.1,-999.0,42,-99.99,,,0.00,Acu-Link.com,2013-08-26 21:35:00,
2013-08-26 14:50:00,71.6,48.5,29.71,ESE,112,3.1,-999.0,44,-99.99,,,0.00,Acu-Link.com,2013-08-26 21:50:00,
2013-08-26 15:05:00,71.6,48.5,29.71,SSE,157,3.6,-999.0,44,-99.99,,,0.00,Acu-Link.com,2013-08-26 22:05:00,
2013-08-26 15:20:00,69.8,46.9,29.71,NE,45,3.6,-999.0,44,-99.99,,,0.00,Acu-Link.com,2013-08-26 22:20:00,
2013-08-26 15:35:00,69.8,46.9,29.71,ESE,112,3.6,-999.0,44,-99.99,,,0.00,Acu-Link.com,2013-08-26 22:35:00,
2013-08-26 15:51:00,69.8,45.7,29.71,WNW,292,1.1,-999.0,42,-99.99,,,0.00,Acu-Link.com,2013-08-26 22:51:00,
2013-08-26 16:06:00,71.6,46.0,29.70,SSE,157,2.7,-999.0,40,-99.99,,,0.00,Acu-Link.com,2013-08-26 23:06:00,
2013-08-26 16:21:00,71.6,44.6,29.70,SSE,157,1.6,-999.0,38,-99.99,,,0.00,Acu-Link.com,2013-08-26 23:21:00,
2013-08-26 16:36:00,71.6,43.9,29.70,SSW,202,3.6,-999.0,37,-99.99,,,0.00,Acu-Link.com,2013-08-26 23:36:00,
2013-08-26 16:51:00,75.2,44.9,29.70,SSE,157,4.0,-999.0,34,-99.99,,,0.00,Acu-Link.com,2013-08-26 23:51:00,
2013-08-26 17:06:00,73.4,45.5,29.70,SE,135,5.6,-999.0,37,-99.99,,,0.00,Acu-Link.com,2013-08-27 00:06:00,
2013-08-26 17:21:00,73.4,45.5,29.70,SW,225,3.6,-999.0,37,-99.99,,,0.00,Acu-Link.com,2013-08-27 00:21:00,
2013-08-26 17:36:00,73.4,44.1,29.70,South,180,3.6,-999.0,35,-99.99,,,0.00,Acu-Link.com,2013-08-27 00:36:00,
2013-08-26 17:52:00,71.6,43.9,29.70,WSW,247,2.0,-999.0,37,-99.99,,,0.00,Acu-Link.com,2013-08-27 00:52:00,
2013-08-26 18:07:00,71.6,44.6,29.70,WSW,247,2.0,-999.0,38,-99.99,,,0.00,Acu-Link.com,2013-08-27 01:07:00,
2013-08-26 18:22:00,71.6,41.7,29.70,SW,225,0.0,-999.0,34,-99.99,,,0.00,Acu-Link.com,2013-08-27 01:22:00,
2013-08-26 18:37:00,69.8,41.6,29.70,SSE,157,2.7,-999.0,36,-99.99,,,0.00,Acu-Link.com,2013-08-27 01:37:00,
2013-08-26 18:52:00,69.8,41.6,29.70,SW,225,1.6,-999.0,36,-99.99,,,0.00,Acu-Link.com,2013-08-27 01:52:00,
2013-08-26 19:07:00,69.8,42.3,29.70,ESE,112,0.0,-999.0,37,-99.99,,,0.00,Acu-Link.com,2013-08-27 02:07:00,
2013-08-26 19:23:00,68.0,41.4,29.70,SE,135,3.1,-999.0,38,-99.99,,,0.00,Acu-Link.com,2013-08-27 02:23:00,
2013-08-26 19:38:00,68.0,41.4,29.70,ESE,112,1.6,-999.0,38,-99.99,,,0.00,Acu-Link.com,2013-08-27 02:38:00,
2013-08-26 19:53:00,66.2,41.2,29.70,SE,135,1.1,-999.0,40,-99.99,,,0.00,Acu-Link.com,2013-08-27 02:53:00,
2013-08-26 20:08:00,64.4,40.8,29.71,NNE,22,2.7,-999.0,42,-99.99,,,0.00,Acu-Link.com,2013-08-27 03:08:00,
2013-08-26 20:24:00,64.4,41.4,29.71,ENE,67,2.7,-999.0,43,-99.99,,,0.00,Acu-Link.com,2013-08-27 03:24:00,
2013-08-26 20:39:00,62.6,41.5,29.71,SSE,157,1.1,-999.0,46,-99.99,,,0.00,Acu-Link.com,2013-08-27 03:39:00,
2013-08-26 20:54:00,62.6,42.6,29.71,ESE,112,2.7,-999.0,48,-99.99,,,0.00,Acu-Link.com,2013-08-27 03:54:00,
2013-08-26 21:09:00,62.6,43.2,29.72,ESE,112,2.0,-999.0,49,-99.99,,,0.00,Acu-Link.com,2013-08-27 04:09:00,
2013-08-26 21:25:00,60.8,41.0,29.72,East,90,2.7,-999.0,48,-99.99,,,0.00,Acu-Link.com,2013-08-27 04:25:00,
2013-08-26 21:40:00,62.6,42.6,29.72,ESE,112,2.0,-999.0,48,-99.99,,,0.00,Acu-Link.com,2013-08-27 04:40:00,
2013-08-26 21:55:00,60.8,42.0,29.72,SE,135,2.7,-999.0,50,-99.99,,,0.00,Acu-Link.com,2013-08-27 04:55:00,
2013-08-26 22:10:00,60.8,45.5,29.72,SSE,157,2.7,-999.0,57,-99.99,,,0.00,Acu-Link.com,2013-08-27 05:10:00,
2013-08-26 22:25:00,60.8,45.9,29.72,SE,135,2.7,-999.0,58,-99.99,,,0.00,Acu-Link.com,2013-08-27 05:25:00,
2013-08-26 22:40:00,60.8,46.8,29.73,South,180,2.7,-999.0,60,-99.99,,,0.00,Acu-Link.com,2013-08-27 05:40:00,
2013-08-26 22:56:00,60.8,47.3,29.72,SE,135,2.0,-999.0,61,-99.99,,,0.00,Acu-Link.com,2013-08-27 05:56:00,
2013-08-26 23:11:00,60.8,48.1,29.73,South,180,6.7,-999.0,63,-99.99,,,0.00,Acu-Link.com,2013-08-27 06:11:00,
2013-08-26 23:26:00,59.0,46.4,29.74,South,180,3.1,-999.0,63,-99.99,,,0.00,Acu-Link.com,2013-08-27 06:26:00,
2013-08-26 23:41:00,59.0,46.8,29.74,SE,135,2.7,-999.0,64,-99.99,,,0.00,Acu-Link.com,2013-08-27 06:41:00,
2013-08-26 23:56:00,57.2,45.9,29.74,ESE,112,3.1,-999.0,66,-99.99,,,0.00,Acu-Link.com,2013-08-27 06:56:00,